Terminal Aerodrome Forecast
Issued by NWS

Home | Current Version | Previous Version | Graphics & Text | Print | Product List | Glossary On
Versions: 1 2 3 4 5 6 7 8 9 10 11 12 13 14 15 16 17 18
000
FTUS43 KICT 201700
TAFRSL
TAF
KRSL 201736Z 2018/2118 25010KT P6SM SCT050
     FM202100 03010KT P6SM SCT090
     FM210000 03010KT P6SM VCTS OVC060CB
     FM210700 03010KT P6SM SCT100=

USA.gov is the U.S. government's official web portal to all federal, state and local government web resources and services.